sensor_id;sensor_type;location;lat;lon;timestamp;temperature;humidity
61916;DHT22;47868;51.326;6.550;2022-07-23T00:00:52;20.80;99.90
61916;DHT22;47868;51.326;6.550;2022-07-23T00:03:18;20.80;99.90
61916;DHT22;47868;51.326;6.550;2022-07-23T00:05:44;20.80;99.90
61916;DHT22;47868;51.326;6.550;2022-07-23T00:08:10;20.80;99.90
61916;DHT22;47868;51.326;6.550;2022-07-23T00:10:35;20.90;99.90
61916;DHT22;47868;51.326;6.550;2022-07-23T00:13:01;20.90;99.90
61916;DHT22;47868;51.326;6.550;2022-07-23T00:15:27;20.90;99.90
61916;DHT22;47868;51.326;6.550;2022-07-23T00:17:53;20.90;99.90
61916;DHT22;47868;51.326;6.550;2022-07-23T00:20:19;20.80;99.90
61916;DHT22;47868;51.326;6.550;2022-07-23T00:22:47;20.90;99.90
61916;DHT22;47868;51.326;6.550;2022-07-23T00:25:13;20.90;99.90
61916;DHT22;47868;51.326;6.550;2022-07-23T00:27:39;20.90;99.90
61916;DHT22;47868;51.326;6.550;2022-07-23T00:30:05;20.80;99.90
61916;DHT22;47868;51.326;6.550;2022-07-23T00:32:31;20.70;99.90
61916;DHT22;47868;51.326;6.550;2022-07-23T00:34:57;20.70;99.90
61916;DHT22;47868;51.326;6.550;2022-07-23T00:37:22;20.70;99.90
61916;DHT22;47868;51.326;6.550;2022-07-23T00:39:48;20.60;99.90
61916;DHT22;47868;51.326;6.550;2022-07-23T00:42:14;20.60;99.90
61916;DHT22;47868;51.326;6.550;2022-07-23T00:44:39;20.60;99.90
61916;DHT22;47868;51.326;6.550;2022-07-23T00:47:05;20.60;99.90
61916;DHT22;47868;51.326;6.550;2022-07-23T00:49:31;20.50;99.90
61916;DHT22;47868;51.326;6.550;2022-07-23T00:51:57;20.50;99.90
61916;DHT22;47868;51.326;6.550;2022-07-23T00:54:27;20.20;99.90
61916;DHT22;47868;51.326;6.550;2022-07-23T00:56:53;20.00;99.90
61916;DHT22;47868;51.326;6.550;2022-07-23T00:59:19;20.00;99.90
61916;DHT22;47868;51.326;6.550;2022-07-23T01:01:45;20.00;99.90
61916;DHT22;47868;51.326;6.550;2022-07-23T01:04:13;20.10;99.90
61916;DHT22;47868;51.326;6.550;2022-07-23T01:06:40;18.50;99.90
61916;DHT22;47868;51.326;6.550;2022-07-23T01:09:06;20.10;99.90
61916;DHT22;47868;51.326;6.550;2022-07-23T01:11:36;20.00;99.90
61916;DHT22;47868;51.326;6.550;2022-07-23T01:14:13;20.00;99.90
61916;DHT22;47868;51.326;6.550;2022-07-23T01:16:40;19.90;99.90
61916;DHT22;47868;51.326;6.550;2022-07-23T01:19:06;20.00;99.90
61916;DHT22;47868;51.326;6.550;2022-07-23T01:21:45;20.00;99.90
61916;DHT22;47868;51.326;6.550;2022-07-23T01:24:12;19.90;99.90
61916;DHT22;47868;51.326;6.550;2022-07-23T01:26:38;20.00;99.90
61916;DHT22;47868;51.326;6.550;2022-07-23T01:29:04;20.10;99.90
61916;DHT22;47868;51.326;6.550;2022-07-23T01:31:31;20.10;99.90
61916;DHT22;47868;51.326;6.550;2022-07-23T01:33:56;20.10;99.90
61916;DHT22;47868;51.326;6.550;2022-07-23T01:36:22;20.10;99.90
61916;DHT22;47868;51.326;6.550;2022-07-23T01:38:48;20.10;99.90
61916;DHT22;47868;51.326;6.550;2022-07-23T01:41:13;20.10;99.90
61916;DHT22;47868;51.326;6.550;2022-07-23T01:43:39;20.10;99.90
61916;DHT22;47868;51.326;6.550;2022-07-23T01:46:05;20.10;99.90
61916;DHT22;47868;51.326;6.550;2022-07-23T01:48:31;20.10;99.90
61916;DHT22;47868;51.326;6.550;2022-07-23T01:50:56;20.10;99.90
61916;DHT22;47868;51.326;6.550;2022-07-23T01:53:22;20.00;99.90
61916;DHT22;47868;51.326;6.550;2022-07-23T01:55:48;20.00;99.90
61916;DHT22;47868;51.326;6.550;2022-07-23T01:58:13;20.00;99.90
61916;DHT22;47868;51.326;6.550;2022-07-23T02:00:39;19.90;99.90
61916;DHT22;47868;51.326;6.550;2022-07-23T02:03:05;19.90;99.90
61916;DHT22;47868;51.326;6.550;2022-07-23T02:05:31;19.90;99.90
61916;DHT22;47868;51.326;6.550;2022-07-23T02:07:57;19.90;99.90
61916;DHT22;47868;51.326;6.550;2022-07-23T02:10:24;19.90;99.90
61916;DHT22;47868;51.326;6.550;2022-07-23T02:12:49;20.00;99.90
61916;DHT22;47868;51.326;6.550;2022-07-23T02:15:18;20.00;99.90
61916;DHT22;47868;51.326;6.550;2022-07-23T02:17:43;19.90;99.90
61916;DHT22;47868;51.326;6.550;2022-07-23T02:20:10;19.90;99.90
61916;DHT22;47868;51.326;6.550;2022-07-23T02:22:36;19.90;99.90
61916;DHT22;47868;51.326;6.550;2022-07-23T02:25:04;19.90;99.90
61916;DHT22;47868;51.326;6.550;2022-07-23T02:27:29;19.80;99.90
61916;DHT22;47868;51.326;6.550;2022-07-23T02:29:55;19.80;99.90
61916;DHT22;47868;51.326;6.550;2022-07-23T02:32:21;19.70;99.90
61916;DHT22;47868;51.326;6.550;2022-07-23T02:34:47;19.70;99.90
61916;DHT22;47868;51.326;6.550;2022-07-23T02:37:13;19.60;99.90
61916;DHT22;47868;51.326;6.550;2022-07-23T02:39:39;19.60;99.90
61916;DHT22;47868;51.326;6.550;2022-07-23T02:42:05;19.60;99.90
61916;DHT22;47868;51.326;6.550;2022-07-23T02:44:31;19.60;99.90
61916;DHT22;47868;51.326;6.550;2022-07-23T02:46:57;19.50;99.90
61916;DHT22;47868;51.326;6.550;2022-07-23T02:49:22;19.60;99.90
61916;DHT22;47868;51.326;6.550;2022-07-23T02:51:48;19.60;99.90
61916;DHT22;47868;51.326;6.550;2022-07-23T02:54:13;19.50;99.90
61916;DHT22;47868;51.326;6.550;2022-07-23T02:56:39;19.50;99.90
61916;DHT22;47868;51.326;6.550;2022-07-23T02:59:05;19.40;99.90
61916;DHT22;47868;51.326;6.550;2022-07-23T03:01:30;19.10;99.90
61916;DHT22;47868;51.326;6.550;2022-07-23T03:03:56;19.00;99.90
61916;DHT22;47868;51.326;6.550;2022-07-23T03:06:22;19.00;99.90
61916;DHT22;47868;51.326;6.550;2022-07-23T03:08:47;19.00;99.90
61916;DHT22;47868;51.326;6.550;2022-07-23T03:11:13;19.10;99.90
61916;DHT22;47868;51.326;6.550;2022-07-23T03:13:40;19.10;99.90
61916;DHT22;47868;51.326;6.550;2022-07-23T03:16:06;19.10;99.90
61916;DHT22;47868;51.326;6.550;2022-07-23T03:18:32;19.00;99.90
61916;DHT22;47868;51.326;6.550;2022-07-23T03:20:58;19.00;99.90
61916;DHT22;47868;51.326;6.550;2022-07-23T03:23:24;19.10;99.90
61916;DHT22;47868;51.326;6.550;2022-07-23T03:25:50;19.10;99.90
61916;DHT22;47868;51.326;6.550;2022-07-23T03:28:16;19.10;99.90
61916;DHT22;47868;51.326;6.550;2022-07-23T03:30:43;19.00;99.90
61916;DHT22;47868;51.326;6.550;2022-07-23T03:33:10;18.90;99.90
61916;DHT22;47868;51.326;6.550;2022-07-23T03:35:36;18.90;99.90
61916;DHT22;47868;51.326;6.550;2022-07-23T03:38:01;18.90;99.90
61916;DHT22;47868;51.326;6.550;2022-07-23T03:40:27;18.90;99.90
61916;DHT22;47868;51.326;6.550;2022-07-23T03:42:53;18.90;99.90
61916;DHT22;47868;51.326;6.550;2022-07-23T03:45:18;18.90;99.90
61916;DHT22;47868;51.326;6.550;2022-07-23T03:47:44;18.90;99.90
61916;DHT22;47868;51.326;6.550;2022-07-23T03:50:10;18.90;99.90
61916;DHT22;47868;51.326;6.550;2022-07-23T03:52:36;18.90;99.90
61916;DHT22;47868;51.326;6.550;2022-07-23T03:55:02;18.90;99.90
61916;DHT22;47868;51.326;6.550;2022-07-23T03:57:28;18.90;99.90
61916;DHT22;47868;51.326;6.550;2022-07-23T03:59:54;18.80;99.90
61916;DHT22;47868;51.326;6.550;2022-07-23T04:02:19;18.70;99.90
61916;DHT22;47868;51.326;6.550;2022-07-23T04:04:45;18.60;99.90
61916;DHT22;47868;51.326;6.550;2022-07-23T04:07:12;18.60;99.90
61916;DHT22;47868;51.326;6.550;2022-07-23T04:09:38;18.60;99.90
61916;DHT22;47868;51.326;6.550;2022-07-23T04:12:06;18.50;99.90
61916;DHT22;47868;51.326;6.550;2022-07-23T04:14:33;18.50;99.90
61916;DHT22;47868;51.326;6.550;2022-07-23T04:16:59;18.50;99.90
61916;DHT22;47868;51.326;6.550;2022-07-23T04:19:25;18.60;99.90
61916;DHT22;47868;51.326;6.550;2022-07-23T04:21:51;18.60;99.90
61916;DHT22;47868;51.326;6.550;2022-07-23T04:24:17;18.60;99.90
61916;DHT22;47868;51.326;6.550;2022-07-23T04:26:43;18.60;99.90
61916;DHT22;47868;51.326;6.550;2022-07-23T04:29:09;18.70;99.90
61916;DHT22;47868;51.326;6.550;2022-07-23T04:31:34;18.80;99.90
61916;DHT22;47868;51.326;6.550;2022-07-23T04:34:00;18.90;99.90
61916;DHT22;47868;51.326;6.550;2022-07-23T04:36:26;18.80;99.90
61916;DHT22;47868;51.326;6.550;2022-07-23T04:38:51;18.80;99.90
61916;DHT22;47868;51.326;6.550;2022-07-23T04:41:17;18.70;99.90
61916;DHT22;47868;51.326;6.550;2022-07-23T04:43:43;18.80;99.90
61916;DHT22;47868;51.326;6.550;2022-07-23T04:46:08;18.80;99.90
61916;DHT22;47868;51.326;6.550;2022-07-23T04:48:36;18.80;99.90
61916;DHT22;47868;51.326;6.550;2022-07-23T04:51:02;18.80;99.90
61916;DHT22;47868;51.326;6.550;2022-07-23T04:53:27;18.70;99.90
61916;DHT22;47868;51.326;6.550;2022-07-23T04:55:53;18.80;99.90
61916;DHT22;47868;51.326;6.550;2022-07-23T04:58:19;18.80;99.90
61916;DHT22;47868;51.326;6.550;2022-07-23T05:00:45;18.50;99.90
61916;DHT22;47868;51.326;6.550;2022-07-23T05:03:11;18.60;99.90
61916;DHT22;47868;51.326;6.550;2022-07-23T05:05:37;18.60;99.90
61916;DHT22;47868;51.326;6.550;2022-07-23T05:08:03;18.60;99.90
61916;DHT22;47868;51.326;6.550;2022-07-23T05:10:28;18.50;99.90
61916;DHT22;47868;51.326;6.550;2022-07-23T05:12:54;18.60;99.90
61916;DHT22;47868;51.326;6.550;2022-07-23T05:15:20;18.70;99.90
61916;DHT22;47868;51.326;6.550;2022-07-23T05:17:46;18.80;99.90
61916;DHT22;47868;51.326;6.550;2022-07-23T05:20:12;18.70;99.90
61916;DHT22;47868;51.326;6.550;2022-07-23T05:22:38;18.80;99.90
61916;DHT22;47868;51.326;6.550;2022-07-23T05:25:05;18.90;99.90
61916;DHT22;47868;51.326;6.550;2022-07-23T05:27:30;18.70;99.90
61916;DHT22;47868;51.326;6.550;2022-07-23T05:29:56;18.70;99.90
61916;DHT22;47868;51.326;6.550;2022-07-23T05:32:22;18.80;99.90
61916;DHT22;47868;51.326;6.550;2022-07-23T05:34:48;18.90;99.90
61916;DHT22;47868;51.326;6.550;2022-07-23T05:37:14;19.00;99.90
61916;DHT22;47868;51.326;6.550;2022-07-23T05:39:39;19.10;99.90
61916;DHT22;47868;51.326;6.550;2022-07-23T05:42:05;19.10;99.90
61916;DHT22;47868;51.326;6.550;2022-07-23T05:44:31;19.20;99.90
61916;DHT22;47868;51.326;6.550;2022-07-23T05:46:56;19.10;99.90
61916;DHT22;47868;51.326;6.550;2022-07-23T05:49:22;19.10;99.90
61916;DHT22;47868;51.326;6.550;2022-07-23T05:51:48;19.10;99.90
61916;DHT22;47868;51.326;6.550;2022-07-23T05:54:13;19.20;99.90
61916;DHT22;47868;51.326;6.550;2022-07-23T05:56:39;19.20;99.90
61916;DHT22;47868;51.326;6.550;2022-07-23T05:59:05;19.20;99.90
61916;DHT22;47868;51.326;6.550;2022-07-23T06:01:31;19.30;99.90
61916;DHT22;47868;51.326;6.550;2022-07-23T06:03:57;19.40;99.90
61916;DHT22;47868;51.326;6.550;2022-07-23T06:06:22;19.30;99.90
61916;DHT22;47868;51.326;6.550;2022-07-23T06:08:48;19.40;99.90
61916;DHT22;47868;51.326;6.550;2022-07-23T06:11:14;19.20;99.90
61916;DHT22;47868;51.326;6.550;2022-07-23T06:13:40;19.10;99.90
61916;DHT22;47868;51.326;6.550;2022-07-23T06:16:05;19.10;99.90
61916;DHT22;47868;51.326;6.550;2022-07-23T06:18:31;19.20;99.90
61916;DHT22;47868;51.326;6.550;2022-07-23T06:20:57;19.20;99.90
61916;DHT22;47868;51.326;6.550;2022-07-23T06:23:22;19.20;99.90
61916;DHT22;47868;51.326;6.550;2022-07-23T06:25:48;19.20;99.90
61916;DHT22;47868;51.326;6.550;2022-07-23T06:28:14;19.30;99.90
61916;DHT22;47868;51.326;6.550;2022-07-23T06:30:39;19.40;99.90
61916;DHT22;47868;51.326;6.550;2022-07-23T06:33:05;19.50;99.90
61916;DHT22;47868;51.326;6.550;2022-07-23T06:35:31;19.40;99.90
61916;DHT22;47868;51.326;6.550;2022-07-23T06:37:56;19.40;99.90
61916;DHT22;47868;51.326;6.550;2022-07-23T06:40:22;19.40;99.90
61916;DHT22;47868;51.326;6.550;2022-07-23T06:42:47;19.50;99.90
61916;DHT22;47868;51.326;6.550;2022-07-23T06:45:13;19.60;99.90
61916;DHT22;47868;51.326;6.550;2022-07-23T06:47:39;19.70;99.90
61916;DHT22;47868;51.326;6.550;2022-07-23T06:50:06;19.80;99.90
61916;DHT22;47868;51.326;6.550;2022-07-23T06:52:32;19.90;99.90
61916;DHT22;47868;51.326;6.550;2022-07-23T06:54:57;19.90;99.90
61916;DHT22;47868;51.326;6.550;2022-07-23T06:57:23;20.00;99.90
61916;DHT22;47868;51.326;6.550;2022-07-23T06:59:51;20.10;99.90
61916;DHT22;47868;51.326;6.550;2022-07-23T07:02:16;20.10;99.90
61916;DHT22;47868;51.326;6.550;2022-07-23T07:07:08;20.10;99.90
61916;DHT22;47868;51.326;6.550;2022-07-23T07:09:34;20.00;99.90
61916;DHT22;47868;51.326;6.550;2022-07-23T07:12:00;20.10;99.90
61916;DHT22;47868;51.326;6.550;2022-07-23T07:14:25;20.10;99.90
61916;DHT22;47868;51.326;6.550;2022-07-23T07:16:51;20.10;99.90
61916;DHT22;47868;51.326;6.550;2022-07-23T07:19:17;20.30;99.90
61916;DHT22;47868;51.326;6.550;2022-07-23T07:21:42;20.30;99.90
61916;DHT22;47868;51.326;6.550;2022-07-23T07:24:08;20.30;99.90
61916;DHT22;47868;51.326;6.550;2022-07-23T07:26:33;20.40;99.90
61916;DHT22;47868;51.326;6.550;2022-07-23T07:28:59;20.50;99.90
61916;DHT22;47868;51.326;6.550;2022-07-23T07:31:25;20.60;99.90
61916;DHT22;47868;51.326;6.550;2022-07-23T07:38:43;20.80;99.90
61916;DHT22;47868;51.326;6.550;2022-07-23T07:41:08;20.70;99.90
61916;DHT22;47868;51.326;6.550;2022-07-23T07:46:03;20.70;99.90
61916;DHT22;47868;51.326;6.550;2022-07-23T07:50:54;20.70;99.90
61916;DHT22;47868;51.326;6.550;2022-07-23T07:53:20;20.70;99.90
61916;DHT22;47868;51.326;6.550;2022-07-23T07:55:46;20.70;99.90
61916;DHT22;47868;51.326;6.550;2022-07-23T07:58:12;20.70;99.90
61916;DHT22;47868;51.326;6.550;2022-07-23T08:05:30;20.90;99.90
61916;DHT22;47868;51.326;6.550;2022-07-23T08:07:57;21.00;99.90
61916;DHT22;47868;51.326;6.550;2022-07-23T08:10:25;21.00;99.90
61916;DHT22;47868;51.326;6.550;2022-07-23T08:12:53;21.10;99.90
61916;DHT22;47868;51.326;6.550;2022-07-23T08:15:21;21.20;99.90
61916;DHT22;47868;51.326;6.550;2022-07-23T08:17:47;21.20;99.90
61916;DHT22;47868;51.326;6.550;2022-07-23T08:20:15;21.30;99.90
61916;DHT22;47868;51.326;6.550;2022-07-23T08:22:53;21.30;99.90
61916;DHT22;47868;51.326;6.550;2022-07-23T08:25:25;21.40;99.90
61916;DHT22;47868;51.326;6.550;2022-07-23T08:27:51;21.50;99.90
61916;DHT22;47868;51.326;6.550;2022-07-23T08:30:18;21.50;99.90
61916;DHT22;47868;51.326;6.550;2022-07-23T08:35:14;21.50;99.90
61916;DHT22;47868;51.326;6.550;2022-07-23T08:37:39;21.50;99.90
61916;DHT22;47868;51.326;6.550;2022-07-23T08:40:05;21.50;99.90
61916;DHT22;47868;51.326;6.550;2022-07-23T08:42:32;21.60;99.90
61916;DHT22;47868;51.326;6.550;2022-07-23T08:45:02;21.70;99.90
61916;DHT22;47868;51.326;6.550;2022-07-23T08:47:29;21.70;99.90
61916;DHT22;47868;51.326;6.550;2022-07-23T08:49:56;21.70;99.90
61916;DHT22;47868;51.326;6.550;2022-07-23T08:52:22;21.80;99.90
61916;DHT22;47868;51.326;6.550;2022-07-23T08:54:48;21.80;99.90
61916;DHT22;47868;51.326;6.550;2022-07-23T08:57:14;21.80;99.90
61916;DHT22;47868;51.326;6.550;2022-07-23T08:59:40;21.70;99.90
61916;DHT22;47868;51.326;6.550;2022-07-23T09:02:06;21.70;99.90
61916;DHT22;47868;51.326;6.550;2022-07-23T09:04:32;21.80;99.90
61916;DHT22;47868;51.326;6.550;2022-07-23T09:06:58;21.80;99.90
61916;DHT22;47868;51.326;6.550;2022-07-23T09:09:24;21.90;99.90
61916;DHT22;47868;51.326;6.550;2022-07-23T09:12:06;21.80;99.90
61916;DHT22;47868;51.326;6.550;2022-07-23T09:17:13;21.90;99.90
61916;DHT22;47868;51.326;6.550;2022-07-23T09:19:40;22.00;99.90
61916;DHT22;47868;51.326;6.550;2022-07-23T09:22:32;22.20;99.90
61916;DHT22;47868;51.326;6.550;2022-07-23T09:25:13;22.30;99.90
61916;DHT22;47868;51.326;6.550;2022-07-23T09:27:50;22.40;99.90
61916;DHT22;47868;51.326;6.550;2022-07-23T09:30:16;22.30;99.90
61916;DHT22;47868;51.326;6.550;2022-07-23T09:32:42;22.40;99.90
61916;DHT22;47868;51.326;6.550;2022-07-23T09:35:08;22.50;99.90
61916;DHT22;47868;51.326;6.550;2022-07-23T09:37:34;22.60;99.90
61916;DHT22;47868;51.326;6.550;2022-07-23T09:40:10;22.80;99.90
61916;DHT22;47868;51.326;6.550;2022-07-23T09:42:55;22.80;99.90
61916;DHT22;47868;51.326;6.550;2022-07-23T09:45:21;22.90;99.90
61916;DHT22;47868;51.326;6.550;2022-07-23T09:47:46;22.90;99.90
61916;DHT22;47868;51.326;6.550;2022-07-23T09:50:12;23.00;99.90
61916;DHT22;47868;51.326;6.550;2022-07-23T09:52:47;23.00;99.90
61916;DHT22;47868;51.326;6.550;2022-07-23T09:55:14;23.00;99.90
61916;DHT22;47868;51.326;6.550;2022-07-23T09:57:44;23.00;99.90
61916;DHT22;47868;51.326;6.550;2022-07-23T10:00:13;23.00;99.90
61916;DHT22;47868;51.326;6.550;2022-07-23T10:02:40;23.00;99.90
61916;DHT22;47868;51.326;6.550;2022-07-23T10:05:06;23.00;99.90
61916;DHT22;47868;51.326;6.550;2022-07-23T10:07:35;23.10;99.90
61916;DHT22;47868;51.326;6.550;2022-07-23T10:10:03;23.20;99.90
61916;DHT22;47868;51.326;6.550;2022-07-23T10:12:29;23.20;99.90
61916;DHT22;47868;51.326;6.550;2022-07-23T10:15:14;23.40;99.90
61916;DHT22;47868;51.326;6.550;2022-07-23T10:17:40;23.40;99.90
61916;DHT22;47868;51.326;6.550;2022-07-23T10:20:06;23.40;99.90
61916;DHT22;47868;51.326;6.550;2022-07-23T10:22:38;23.50;99.90
61916;DHT22;47868;51.326;6.550;2022-07-23T10:30:57;23.70;99.90
61916;DHT22;47868;51.326;6.550;2022-07-23T10:33:41;23.50;99.90
61916;DHT22;47868;51.326;6.550;2022-07-23T10:36:24;23.60;99.90
61916;DHT22;47868;51.326;6.550;2022-07-23T10:39:08;23.60;99.90
61916;DHT22;47868;51.326;6.550;2022-07-23T10:41:39;23.70;99.90
61916;DHT22;47868;51.326;6.550;2022-07-23T10:44:16;23.90;99.90
61916;DHT22;47868;51.326;6.550;2022-07-23T10:46:55;24.10;99.90
61916;DHT22;47868;51.326;6.550;2022-07-23T10:49:39;24.20;99.90
61916;DHT22;47868;51.326;6.550;2022-07-23T10:52:15;24.10;99.90
61916;DHT22;47868;51.326;6.550;2022-07-23T10:54:42;24.00;99.70
61916;DHT22;47868;51.326;6.550;2022-07-23T10:57:10;24.00;99.90
61916;DHT22;47868;51.326;6.550;2022-07-23T11:02:38;24.10;99.60
61916;DHT22;47868;51.326;6.550;2022-07-23T11:05:10;24.10;98.70
61916;DHT22;47868;51.326;6.550;2022-07-23T11:07:37;24.20;98.80
61916;DHT22;47868;51.326;6.550;2022-07-23T11:24:11;24.50;96.50
61916;DHT22;47868;51.326;6.550;2022-07-23T11:31:57;25.10;96.70
61916;DHT22;47868;51.326;6.550;2022-07-23T11:34:38;25.80;96.10
61916;DHT22;47868;51.326;6.550;2022-07-23T11:37:06;25.50;94.00
61916;DHT22;47868;51.326;6.550;2022-07-23T11:39:33;25.70;93.70
61916;DHT22;47868;51.326;6.550;2022-07-23T11:42:00;26.10;91.90
61916;DHT22;47868;51.326;6.550;2022-07-23T11:44:35;26.20;92.20
61916;DHT22;47868;51.326;6.550;2022-07-23T11:49:28;26.70;90.20
61916;DHT22;47868;51.326;6.550;2022-07-23T11:54:30;27.60;85.00
61916;DHT22;47868;51.326;6.550;2022-07-23T11:57:00;28.00;81.40
61916;DHT22;47868;51.326;6.550;2022-07-23T11:59:28;28.40;77.40
61916;DHT22;47868;51.326;6.550;2022-07-23T12:02:02;28.80;74.80
61916;DHT22;47868;51.326;6.550;2022-07-23T12:04:44;29.50;72.70
61916;DHT22;47868;51.326;6.550;2022-07-23T12:07:43;30.00;68.60
61916;DHT22;47868;51.326;6.550;2022-07-23T12:10:17;30.60;63.30
61916;DHT22;47868;51.326;6.550;2022-07-23T12:13:01;30.90;61.60
61916;DHT22;47868;51.326;6.550;2022-07-23T12:15:43;31.70;58.80
61916;DHT22;47868;51.326;6.550;2022-07-23T12:18:11;32.20;56.40
61916;DHT22;47868;51.326;6.550;2022-07-23T12:20:49;32.40;54.50
61916;DHT22;47868;51.326;6.550;2022-07-23T12:23:16;32.90;52.80
61916;DHT22;47868;51.326;6.550;2022-07-23T12:25:44;32.70;51.30
61916;DHT22;47868;51.326;6.550;2022-07-23T12:30:48;32.90;50.50
61916;DHT22;47868;51.326;6.550;2022-07-23T12:33:32;34.00;50.20
61916;DHT22;47868;51.326;6.550;2022-07-23T12:36:01;34.50;46.80
61916;DHT22;47868;51.326;6.550;2022-07-23T12:38:36;35.00;45.70
61916;DHT22;47868;51.326;6.550;2022-07-23T12:41:01;35.00;46.20
61916;DHT22;47868;51.326;6.550;2022-07-23T12:43:30;35.40;43.60
61916;DHT22;47868;51.326;6.550;2022-07-23T12:46:05;35.90;42.60
61916;DHT22;47868;51.326;6.550;2022-07-23T12:48:35;35.60;41.20
61916;DHT22;47868;51.326;6.550;2022-07-23T12:51:09;35.60;41.60
61916;DHT22;47868;51.326;6.550;2022-07-23T12:53:45;35.30;41.20
61916;DHT22;47868;51.326;6.550;2022-07-23T12:56:16;35.80;41.90
61916;DHT22;47868;51.326;6.550;2022-07-23T13:06:21;35.40;41.20
61916;DHT22;47868;51.326;6.550;2022-07-23T13:08:47;34.60;41.60
61916;DHT22;47868;51.326;6.550;2022-07-23T13:11:12;34.60;42.80
61916;DHT22;47868;51.326;6.550;2022-07-23T13:13:39;34.10;43.30
61916;DHT22;47868;51.326;6.550;2022-07-23T13:16:05;33.50;44.00
61916;DHT22;47868;51.326;6.550;2022-07-23T13:18:31;32.60;44.30
61916;DHT22;47868;51.326;6.550;2022-07-23T13:20:57;32.40;44.10
61916;DHT22;47868;51.326;6.550;2022-07-23T13:23:23;32.40;44.60
61916;DHT22;47868;51.326;6.550;2022-07-23T13:25:49;32.50;45.00
61916;DHT22;47868;51.326;6.550;2022-07-23T13:28:16;32.60;45.00
61916;DHT22;47868;51.326;6.550;2022-07-23T13:30:43;31.00;46.10
61916;DHT22;47868;51.326;6.550;2022-07-23T13:33:10;30.90;46.80
61916;DHT22;47868;51.326;6.550;2022-07-23T13:35:36;30.80;48.70
61916;DHT22;47868;51.326;6.550;2022-07-23T13:38:04;31.10;49.80
61916;DHT22;47868;51.326;6.550;2022-07-23T13:40:30;31.30;49.80
61916;DHT22;47868;51.326;6.550;2022-07-23T13:42:56;31.20;48.70
61916;DHT22;47868;51.326;6.550;2022-07-23T13:45:22;31.20;48.70
61916;DHT22;47868;51.326;6.550;2022-07-23T13:47:47;30.80;47.60
61916;DHT22;47868;51.326;6.550;2022-07-23T13:50:13;30.80;48.20
61916;DHT22;47868;51.326;6.550;2022-07-23T13:52:42;30.40;48.00
61916;DHT22;47868;51.326;6.550;2022-07-23T13:55:08;30.00;48.30
61916;DHT22;47868;51.326;6.550;2022-07-23T13:57:34;30.20;49.10
61916;DHT22;47868;51.326;6.550;2022-07-23T14:00:00;30.20;47.80
61916;DHT22;47868;51.326;6.550;2022-07-23T14:02:26;29.90;49.10
61916;DHT22;47868;51.326;6.550;2022-07-23T14:04:52;30.00;49.70
61916;DHT22;47868;51.326;6.550;2022-07-23T14:07:18;30.10;49.80
61916;DHT22;47868;51.326;6.550;2022-07-23T14:09:44;30.30;49.90
61916;DHT22;47868;51.326;6.550;2022-07-23T14:12:11;30.40;49.80
61916;DHT22;47868;51.326;6.550;2022-07-23T14:17:02;30.00;49.20
61916;DHT22;47868;51.326;6.550;2022-07-23T14:19:29;29.70;48.60
61916;DHT22;47868;51.326;6.550;2022-07-23T14:26:46;30.20;47.90
61916;DHT22;47868;51.326;6.550;2022-07-23T14:41:22;30.30;49.80
61916;DHT22;47868;51.326;6.550;2022-07-23T14:43:48;30.20;49.90
61916;DHT22;47868;51.326;6.550;2022-07-23T14:46:14;29.90;49.30
61916;DHT22;47868;51.326;6.550;2022-07-23T14:53:32;30.20;50.80
61916;DHT22;47868;51.326;6.550;2022-07-23T14:58:24;30.60;51.90
61916;DHT22;47868;51.326;6.550;2022-07-23T15:00:50;30.60;50.80
61916;DHT22;47868;51.326;6.550;2022-07-23T15:27:39;37.00;36.70
61916;DHT22;47868;51.326;6.550;2022-07-23T15:30:05;37.10;37.70
61916;DHT22;47868;51.326;6.550;2022-07-23T15:37:23;38.30;34.20
61916;DHT22;47868;51.326;6.550;2022-07-23T15:39:49;35.60;37.50
61916;DHT22;47868;51.326;6.550;2022-07-23T15:42:15;33.90;39.80
61916;DHT22;47868;51.326;6.550;2022-07-23T15:44:42;31.60;42.70
61916;DHT22;47868;51.326;6.550;2022-07-23T15:47:14;31.20;43.70
61916;DHT22;47868;51.326;6.550;2022-07-23T15:49:40;31.00;43.90
61916;DHT22;47868;51.326;6.550;2022-07-23T16:01:50;30.30;46.60
61916;DHT22;47868;51.326;6.550;2022-07-23T16:04:15;29.80;49.00
61916;DHT22;47868;51.326;6.550;2022-07-23T16:09:08;30.00;47.90
61916;DHT22;47868;51.326;6.550;2022-07-23T16:11:34;29.80;47.60
61916;DHT22;47868;51.326;6.550;2022-07-23T16:13:59;29.50;47.80
61916;DHT22;47868;51.326;6.550;2022-07-23T16:18:55;29.50;47.90
61916;DHT22;47868;51.326;6.550;2022-07-23T16:21:22;29.50;47.70
61916;DHT22;47868;51.326;6.550;2022-07-23T16:28:43;29.30;48.00
61916;DHT22;47868;51.326;6.550;2022-07-23T16:31:10;29.40;47.70
61916;DHT22;47868;51.326;6.550;2022-07-23T16:33:36;29.50;48.20
61916;DHT22;47868;51.326;6.550;2022-07-23T16:36:03;28.90;47.50
61916;DHT22;47868;51.326;6.550;2022-07-23T16:43:22;28.60;48.20
61916;DHT22;47868;51.326;6.550;2022-07-23T16:55:32;29.30;51.20
61916;DHT22;47868;51.326;6.550;2022-07-23T16:57:58;29.00;51.90
61916;DHT22;47868;51.326;6.550;2022-07-23T17:05:15;29.20;49.80
61916;DHT22;47868;51.326;6.550;2022-07-23T17:10:08;28.70;50.40
61916;DHT22;47868;51.326;6.550;2022-07-23T17:12:38;29.20;51.20
61916;DHT22;47868;51.326;6.550;2022-07-23T17:15:04;28.60;52.20
61916;DHT22;47868;51.326;6.550;2022-07-23T17:17:29;28.80;53.00
61916;DHT22;47868;51.326;6.550;2022-07-23T17:19:55;28.70;51.60
61916;DHT22;47868;51.326;6.550;2022-07-23T17:29:40;28.90;57.30
61916;DHT22;47868;51.326;6.550;2022-07-23T17:36:58;28.20;59.10
61916;DHT22;47868;51.326;6.550;2022-07-23T17:44:17;28.10;56.30
61916;DHT22;47868;51.326;6.550;2022-07-23T17:46:44;28.30;55.70
61916;DHT22;47868;51.326;6.550;2022-07-23T17:54:02;28.10;52.20
61916;DHT22;47868;51.326;6.550;2022-07-23T17:58:55;27.80;54.10
61916;DHT22;47868;51.326;6.550;2022-07-23T18:01:21;27.80;53.90
61916;DHT22;47868;51.326;6.550;2022-07-23T18:03:47;27.70;54.70
61916;DHT22;47868;51.326;6.550;2022-07-23T18:06:15;27.90;56.10
61916;DHT22;47868;51.326;6.550;2022-07-23T18:11:07;27.10;62.80
61916;DHT22;47868;51.326;6.550;2022-07-23T18:13:32;27.10;54.10
61916;DHT22;47868;51.326;6.550;2022-07-23T18:15:58;27.20;54.80
61916;DHT22;47868;51.326;6.550;2022-07-23T18:18:24;27.40;56.40
61916;DHT22;47868;51.326;6.550;2022-07-23T18:20:50;27.50;53.70
61916;DHT22;47868;51.326;6.550;2022-07-23T18:23:16;27.60;57.70
61916;DHT22;47868;51.326;6.550;2022-07-23T18:25:43;27.40;55.30
61916;DHT22;47868;51.326;6.550;2022-07-23T18:28:09;27.20;57.10
61916;DHT22;47868;51.326;6.550;2022-07-23T18:30:35;27.20;59.10
61916;DHT22;47868;51.326;6.550;2022-07-23T18:37:53;27.10;58.90
61916;DHT22;47868;51.326;6.550;2022-07-23T18:40:19;27.10;56.40
61916;DHT22;47868;51.326;6.550;2022-07-23T18:42:45;27.20;60.20
61916;DHT22;47868;51.326;6.550;2022-07-23T18:45:12;26.70;59.10